Time;durP1;ratioP1;P1;durP2;ratioP2;P2;SDS_P1;SDS_P2;PMS_P1;PMS_P2;Temp;Humidity;BMP_temperature;BMP_pressure;BME280_temperature;BME280_humidity;BME280_pressure;Samples;Min_cycle;Max_cycle;Signal;HPM_P1;HPM_P2
2023/09/23 00:01:45;;;;;;;2.17;1.77;;;11.80;99.90;;;;;;467086;254;28246;-71
2023/09/23 00:03:46;;;;;;;2.33;1.30;;;11.80;99.90;;;;;;467108;249;28191;-70
2023/09/23 00:05:47;;;;;;;1.50;1.40;;;11.80;99.90;;;;;;467175;253;28685;-71
2023/09/23 00:07:50;;;;;;;2.57;1.40;;;11.80;99.90;;;;;;467174;254;28589;-70
2023/09/23 00:09:53;;;;;;;2.53;1.50;;;11.80;99.90;;;;;;467138;254;28138;-71
2023/09/23 00:11:51;;;;;;;6.33;1.93;;;11.80;99.90;;;;;;466959;254;28384;-71
2023/09/23 00:13:53;;;;;;;2.50;1.20;;;11.80;99.90;;;;;;467132;254;28951;-71
2023/09/23 00:15:55;;;;;;;1.30;1.20;;;11.80;99.90;;;;;;467187;253;28698;-73
2023/09/23 00:17:55;;;;;;;2.27;1.63;;;11.80;99.90;;;;;;467095;254;28274;-71
2023/09/23 00:19:56;;;;;;;1.50;1.17;;;11.80;99.90;;;;;;467190;253;28440;-70
2023/09/23 00:21:58;;;;;;;1.60;1.03;;;11.80;99.90;;;;;;467157;253;28522;-72
2023/09/23 00:24:01;;;;;;;2.53;1.40;;;11.80;99.90;;;;;;467205;253;28511;-70
2023/09/23 00:26:01;;;;;;;1.10;1.10;;;11.80;99.90;;;;;;467061;254;28959;-71
2023/09/23 00:28:02;;;;;;;1.27;1.20;;;11.80;99.90;;;;;;467141;254;28590;-71
2023/09/23 00:30:07;;;;;;;1.40;1.30;;;11.80;99.90;;;;;;467168;254;28308;-71
2023/09/23 00:32:07;;;;;;;1.47;1.20;;;11.70;99.90;;;;;;467113;253;28736;-70
2023/09/23 00:34:08;;;;;;;1.50;1.40;;;11.70;99.90;;;;;;467174;253;28782;-71
2023/09/23 00:36:10;;;;;;;1.50;1.40;;;11.60;99.90;;;;;;467080;253;28465;-71
2023/09/23 00:38:11;;;;;;;2.40;1.33;;;11.70;99.90;;;;;;466938;254;28606;-71
2023/09/23 00:40:32;;;;;;;1.30;1.20;;;11.70;99.90;;;;;;467133;253;28370;-71
2023/09/23 00:42:19;;;;;;;1.53;1.43;;;;;;;;;;465269;254;28813;-70
2023/09/23 00:44:19;;;;;;;1.33;1.30;;;11.60;99.90;;;;;;467199;250;27190;-71
2023/09/23 00:46:23;;;;;;;1.27;1.20;;;11.60;99.90;;;;;;467117;253;28371;-71
2023/09/23 00:48:21;;;;;;;1.57;1.47;;;11.60;99.90;;;;;;466955;254;28409;-71
2023/09/23 00:50:24;;;;;;;4.03;1.30;;;11.60;99.90;;;;;;467164;253;28317;-71
2023/09/23 00:52:24;;;;;;;1.20;1.10;;;11.60;99.90;;;;;;467137;254;28827;-71
2023/09/23 00:54:25;;;;;;;1.63;1.13;;;11.60;99.90;;;;;;467191;254;29016;-70
2023/09/23 00:56:30;;;;;;;2.40;1.43;;;11.60;99.90;;;;;;467160;254;28717;-71
2023/09/23 00:58:27;;;;;;;1.30;1.20;;;11.60;99.90;;;;;;466955;254;28527;-70
2023/09/23 01:00:31;;;;;;;1.33;1.23;;;11.50;99.90;;;;;;467185;254;28312;-71
2023/09/23 01:02:30;;;;;;;2.60;1.10;;;11.50;99.90;;;;;;466966;254;28301;-70
2023/09/23 01:04:31;;;;;;;1.50;1.40;;;11.40;99.90;;;;;;467124;253;28382;-71
2023/09/23 01:06:34;;;;;;;1.63;1.47;;;;;;;;;;467126;253;28461;-70
2023/09/23 01:08:35;;;;;;;1.40;1.30;;;11.20;99.90;;;;;;467175;253;27694;-71
2023/09/23 01:10:36;;;;;;;1.40;1.30;;;11.20;99.90;;;;;;467161;253;28170;-71
2023/09/23 01:12:37;;;;;;;1.50;1.40;;;11.10;99.90;;;;;;467147;253;28261;-71
2023/09/23 01:14:38;;;;;;;3.13;1.10;;;11.10;99.90;;;;;;467171;249;28003;-72
2023/09/23 01:16:41;;;;;;;1.43;1.33;;;11.10;99.90;;;;;;467175;253;27935;-70
2023/09/23 01:18:41;;;;;;;1.07;1.07;;;11.00;99.90;;;;;;467122;254;28022;-70
2023/09/23 01:20:42;;;;;;;1.87;1.50;;;10.90;99.90;;;;;;467133;254;28057;-71
2023/09/23 01:22:44;;;;;;;1.40;1.30;;;10.90;99.90;;;;;;467073;253;28146;-72
2023/09/23 01:24:45;;;;;;;3.30;1.37;;;10.80;99.90;;;;;;467197;254;28081;-73
2023/09/23 01:26:46;;;;;;;1.43;1.33;;;10.80;99.90;;;;;;467127;253;28123;-71
2023/09/23 01:28:49;;;;;;;1.33;1.23;;;10.80;99.90;;;;;;467167;253;28643;-70
2023/09/23 01:30:48;;;;;;;1.30;1.20;;;10.80;99.90;;;;;;467095;254;28342;-70
2023/09/23 01:32:51;;;;;;;3.97;1.70;;;10.70;99.90;;;;;;467177;253;28650;-71
2023/09/23 01:34:52;;;;;;;1.50;1.40;;;10.70;99.90;;;;;;467102;254;28099;-71
2023/09/23 01:36:53;;;;;;;1.53;1.43;;;10.70;99.90;;;;;;467077;254;28031;-70
2023/09/23 01:38:53;;;;;;;1.50;1.40;;;10.70;99.90;;;;;;467112;253;28103;-70
2023/09/23 01:40:55;;;;;;;1.53;1.43;;;10.60;99.90;;;;;;467166;253;27912;-71
2023/09/23 01:42:57;;;;;;;1.37;1.27;;;10.60;99.90;;;;;;467191;253;27806;-70
2023/09/23 01:44:57;;;;;;;1.30;1.20;;;10.60;99.90;;;;;;467083;253;27957;-74
2023/09/23 01:46:58;;;;;;;1.17;1.13;;;10.50;99.90;;;;;;467132;253;27987;-70
2023/09/23 01:49:02;;;;;;;1.30;1.20;;;10.50;99.90;;;;;;467120;253;28071;-71
2023/09/23 01:51:02;;;;;;;2.23;1.47;;;10.40;99.90;;;;;;467046;254;27875;-72
2023/09/23 01:53:02;;;;;;;2.07;1.30;;;10.40;99.90;;;;;;467134;254;27723;-71
2023/09/23 01:55:05;;;;;;;4.67;1.30;;;10.40;99.90;;;;;;467134;253;28584;-70
2023/09/23 01:57:05;;;;;;;2.67;1.30;;;10.30;99.90;;;;;;467013;254;28444;-71
2023/09/23 01:59:09;;;;;;;1.50;1.40;;;10.40;99.90;;;;;;467157;253;28446;-70
2023/09/23 02:01:07;;;;;;;1.13;1.00;;;10.30;99.90;;;;;;467005;254;27840;-72
2023/09/23 02:03:09;;;;;;;1.20;1.10;;;10.30;99.90;;;;;;467156;253;27936;-70
2023/09/23 02:05:10;;;;;;;1.43;1.33;;;10.30;99.90;;;;;;467153;253;28079;-71
2023/09/23 02:07:11;;;;;;;1.40;1.30;;;10.20;99.90;;;;;;467154;249;28008;-71
2023/09/23 02:09:12;;;;;;;3.13;1.30;;;10.20;99.90;;;;;;467173;253;27699;-70
2023/09/23 02:11:14;;;;;;;1.40;1.30;;;10.20;99.90;;;;;;467087;254;28047;-71
2023/09/23 02:13:15;;;;;;;5.57;1.40;;;10.20;99.90;;;;;;467133;253;27826;-71
2023/09/23 02:15:16;;;;;;;1.40;1.30;;;10.10;99.90;;;;;;467177;254;27847;-71
2023/09/23 02:17:19;;;;;;;1.13;1.13;;;10.10;99.90;;;;;;467124;253;27988;-70
2023/09/23 02:19:19;;;;;;;1.87;1.73;;;10.10;99.90;;;;;;467066;254;28398;-70
2023/09/23 02:21:20;;;;;;;1.60;1.50;;;10.10;99.90;;;;;;467158;254;28346;-71
2023/09/23 02:23:21;;;;;;;2.80;1.50;;;10.10;99.90;;;;;;467144;253;28281;-70
2023/09/23 02:25:25;;;;;;;1.10;1.10;;;10.10;99.90;;;;;;467176;253;27934;-71
2023/09/23 02:27:24;;;;;;;1.30;1.20;;;10.10;99.90;;;;;;466824;250;27974;-74
2023/09/23 02:29:25;;;;;;;4.97;1.70;;;10.10;99.90;;;;;;467155;253;27714;-71
2023/09/23 02:31:26;;;;;;;1.43;1.33;;;10.10;99.90;;;;;;467147;254;27774;-71
2023/09/23 02:33:29;;;;;;;1.50;1.40;;;10.10;99.90;;;;;;467133;249;27818;-70
2023/09/23 02:35:29;;;;;;;1.67;1.57;;;10.10;99.90;;;;;;467060;254;27948;-70
2023/09/23 02:37:30;;;;;;;4.63;1.70;;;10.00;99.90;;;;;;467141;253;27980;-72
2023/09/23 02:39:31;;;;;;;1.50;1.40;;;10.00;99.90;;;;;;467132;254;27755;-70
2023/09/23 02:41:33;;;;;;;1.83;1.50;;;10.00;99.90;;;;;;467151;253;28142;-71
2023/09/23 02:43:34;;;;;;;7.20;1.70;;;9.90;99.90;;;;;;467125;253;29104;-70
2023/09/23 02:45:35;;;;;;;1.10;1.10;;;9.90;99.90;;;;;;467172;253;28368;-70
2023/09/23 02:47:36;;;;;;;1.30;1.20;;;9.90;99.90;;;;;;467147;253;28450;-71
2023/09/23 02:49:37;;;;;;;2.00;1.57;;;10.00;99.90;;;;;;467129;253;28123;-71
2023/09/23 02:51:39;;;;;;;1.40;1.30;;;10.00;99.90;;;;;;467141;253;28198;-70
2023/09/23 02:53:40;;;;;;;1.80;1.50;;;10.00;99.90;;;;;;467153;253;27845;-71
2023/09/23 02:55:42;;;;;;;1.30;1.20;;;10.00;99.90;;;;;;467155;253;27930;-70
2023/09/23 02:57:46;;;;;;;1.93;1.40;;;10.00;99.90;;;;;;467095;253;27940;-71
2023/09/23 02:59:46;;;;;;;2.83;1.43;;;10.00;99.90;;;;;;466926;254;27945;-70
2023/09/23 03:01:53;;;;;;;1.53;1.43;;;9.90;99.90;;;;;;467000;254;27591;-71
2023/09/23 03:03:49;;;;;;;1.50;1.40;;;9.90;99.90;;;;;;466669;254;27710;-71
2023/09/23 03:05:57;;;;;;;3.57;1.37;;;9.90;99.90;;;;;;467092;253;28437;-72
2023/09/23 03:07:58;;;;;;;1.50;1.23;;;9.90;99.90;;;;;;467100;254;28719;-71
2023/09/23 03:10:00;;;;;;;3.20;1.47;;;9.90;99.90;;;;;;467117;253;28409;-70
2023/09/23 03:12:00;;;;;;;1.53;1.40;;;9.90;99.90;;;;;;467078;253;29091;-71
2023/09/23 03:14:02;;;;;;;1.10;1.10;;;9.90;99.90;;;;;;467151;253;27952;-70
2023/09/23 03:16:10;;;;;;;3.60;1.60;;;9.90;99.90;;;;;;467080;254;27979;-71
2023/09/23 03:18:10;;;;;;;1.50;1.40;;;9.90;99.90;;;;;;467106;254;28511;-71
2023/09/23 03:20:20;;;;;;;1.63;1.53;;;9.80;99.90;;;;;;467187;254;28017;-71
2023/09/23 03:22:13;;;;;;;6.27;1.50;;;9.80;99.90;;;;;;466593;254;28097;-71
2023/09/23 03:24:15;;;;;;;1.30;1.20;;;9.80;99.90;;;;;;467171;254;27933;-71
2023/09/23 03:26:15;;;;;;;1.50;1.40;;;9.80;99.90;;;;;;467098;254;28063;-70
2023/09/23 03:28:16;;;;;;;1.70;1.60;;;9.80;99.90;;;;;;467130;253;28194;-71
2023/09/23 03:30:17;;;;;;;2.43;1.60;;;9.80;99.90;;;;;;467071;253;27984;-71
2023/09/23 03:32:20;;;;;;;1.47;1.37;;;9.80;99.90;;;;;;467101;253;28007;-72
2023/09/23 03:34:21;;;;;;;2.83;1.70;;;9.70;99.90;;;;;;467060;253;27777;-71
2023/09/23 03:36:24;;;;;;;1.50;1.40;;;9.70;99.90;;;;;;467112;253;27791;-71
2023/09/23 03:38:22;;;;;;;2.00;1.20;;;9.70;99.90;;;;;;466954;254;27832;-70
2023/09/23 03:40:29;;;;;;;1.67;1.57;;;9.70;99.90;;;;;;467175;253;28048;-70
2023/09/23 03:42:26;;;;;;;7.60;1.80;;;9.70;99.90;;;;;;466702;254;28058;-71
2023/09/23 03:44:26;;;;;;;1.60;1.50;;;9.60;99.90;;;;;;467146;254;27790;-72
2023/09/23 03:46:29;;;;;;;1.43;1.33;;;9.70;99.90;;;;;;467179;254;27957;-71
2023/09/23 03:48:28;;;;;;;1.97;1.30;;;9.70;99.90;;;;;;467069;254;29217;-70
2023/09/23 03:50:32;;;;;;;3.60;1.80;;;9.70;99.90;;;;;;467198;253;28531;-70
2023/09/23 03:52:32;;;;;;;3.07;1.70;;;9.70;99.90;;;;;;467060;254;28541;-70
2023/09/23 03:54:33;;;;;;;1.50;1.40;;;9.60;99.90;;;;;;467126;254;28098;-71
2023/09/23 03:56:34;;;;;;;3.67;1.57;;;9.60;99.90;;;;;;467183;253;28538;-70
2023/09/23 03:58:35;;;;;;;2.63;1.63;;;9.60;99.90;;;;;;467191;253;28694;-70
2023/09/23 04:00:36;;;;;;;1.40;1.30;;;9.60;99.90;;;;;;467186;253;27903;-71
2023/09/23 04:02:37;;;;;;;1.63;1.30;;;9.60;99.90;;;;;;467196;253;27957;-71
2023/09/23 04:04:38;;;;;;;4.60;2.00;;;9.60;99.90;;;;;;467187;253;27868;-71
2023/09/23 04:06:40;;;;;;;2.27;1.90;;;9.60;99.90;;;;;;467176;253;28021;-71
2023/09/23 04:08:41;;;;;;;3.23;1.47;;;9.60;99.90;;;;;;467198;254;27998;-72
2023/09/23 04:10:42;;;;;;;4.00;1.70;;;9.60;99.90;;;;;;467184;253;27823;-71
2023/09/23 04:12:43;;;;;;;4.47;1.30;;;9.60;99.90;;;;;;467157;254;28180;-70
2023/09/23 04:14:45;;;;;;;3.53;1.77;;;9.60;99.90;;;;;;467171;253;27591;-71
2023/09/23 04:16:46;;;;;;;1.40;1.30;;;9.50;99.90;;;;;;467135;253;28056;-70
2023/09/23 04:18:47;;;;;;;1.70;1.60;;;9.60;99.90;;;;;;467218;253;27728;-71
2023/09/23 04:20:48;;;;;;;1.87;1.50;;;9.50;99.90;;;;;;467225;253;27898;-70
2023/09/23 04:22:50;;;;;;;1.57;1.37;;;9.50;99.90;;;;;;467184;253;27981;-71
2023/09/23 04:24:51;;;;;;;1.57;1.47;;;9.50;99.90;;;;;;467186;253;28116;-70
2023/09/23 04:26:53;;;;;;;1.73;1.63;;;9.50;99.90;;;;;;467197;253;27754;-70
2023/09/23 04:28:53;;;;;;;1.70;1.60;;;9.50;99.90;;;;;;467118;253;28496;-71
2023/09/23 04:30:55;;;;;;;1.50;1.40;;;9.50;99.90;;;;;;467150;253;28643;-70
2023/09/23 04:32:56;;;;;;;6.73;1.60;;;9.50;99.90;;;;;;467171;254;28461;-70
2023/09/23 04:34:57;;;;;;;1.60;1.50;;;9.50;99.90;;;;;;467218;254;28782;-70
2023/09/23 04:36:58;;;;;;;1.67;1.40;;;9.50;99.90;;;;;;467221;253;28584;-70
2023/09/23 04:39:00;;;;;;;2.23;1.60;;;9.50;99.90;;;;;;467213;253;27935;-71
2023/09/23 04:41:01;;;;;;;2.80;1.70;;;9.50;99.90;;;;;;467220;253;27956;-70
2023/09/23 04:43:04;;;;;;;2.40;1.60;;;9.40;99.90;;;;;;467154;253;27955;-70
2023/09/23 04:45:04;;;;;;;1.47;1.30;;;9.40;99.90;;;;;;467115;254;28086;-72
2023/09/23 04:47:05;;;;;;;2.10;1.60;;;9.40;99.90;;;;;;467174;250;27810;-72
2023/09/23 04:49:06;;;;;;;2.63;1.30;;;9.40;99.90;;;;;;467145;253;28053;-71
2023/09/23 04:51:08;;;;;;;5.10;1.87;;;9.40;99.90;;;;;;467209;253;28293;-71
2023/09/23 04:53:08;;;;;;;1.47;1.40;;;9.40;99.90;;;;;;467094;254;27831;-70
2023/09/23 04:55:10;;;;;;;1.63;1.53;;;9.30;99.90;;;;;;467104;254;28006;-72
2023/09/23 04:57:11;;;;;;;2.03;1.63;;;9.30;99.90;;;;;;467087;254;27885;-70
2023/09/23 04:59:12;;;;;;;1.70;1.60;;;9.30;99.90;;;;;;467143;253;28058;-70
2023/09/23 05:01:14;;;;;;;1.73;1.60;;;9.30;99.90;;;;;;467165;253;27936;-71
2023/09/23 05:03:15;;;;;;;1.83;1.70;;;9.30;99.90;;;;;;467166;253;28054;-70
2023/09/23 05:05:16;;;;;;;2.73;1.50;;;9.30;99.90;;;;;;467171;249;27854;-71
2023/09/23 05:07:18;;;;;;;3.87;1.23;;;9.30;99.90;;;;;;467177;253;27537;-71
2023/09/23 05:09:18;;;;;;;2.60;1.53;;;9.20;99.90;;;;;;467183;253;28497;-72
2023/09/23 05:11:20;;;;;;;1.57;1.47;;;9.20;99.90;;;;;;467176;253;28271;-71
2023/09/23 05:13:21;;;;;;;2.13;1.37;;;9.10;99.90;;;;;;467234;253;28652;-70
2023/09/23 05:15:23;;;;;;;1.47;1.37;;;9.20;99.90;;;;;;467172;253;28566;-71
2023/09/23 05:17:26;;;;;;;2.90;1.67;;;9.10;99.90;;;;;;467106;254;28457;-70
2023/09/23 05:19:28;;;;;;;2.23;1.50;;;9.20;99.90;;;;;;466989;254;27940;-71
2023/09/23 05:21:26;;;;;;;4.80;1.63;;;9.10;99.90;;;;;;466803;254;28089;-71
2023/09/23 05:23:28;;;;;;;1.57;1.37;;;9.10;99.90;;;;;;467199;253;28057;-71
2023/09/23 05:25:28;;;;;;;1.83;1.60;;;9.10;99.90;;;;;;467120;254;27829;-70
2023/09/23 05:27:30;;;;;;;3.67;1.77;;;9.10;99.90;;;;;;467155;253;27913;-71
2023/09/23 05:29:31;;;;;;;2.07;1.47;;;9.20;99.90;;;;;;467142;253;27943;-71
2023/09/23 05:31:32;;;;;;;1.53;1.43;;;9.20;99.90;;;;;;467202;249;28061;-73
2023/09/23 05:33:33;;;;;;;1.30;1.20;;;9.10;99.90;;;;;;467188;253;28039;-70
2023/09/23 05:35:37;;;;;;;2.40;1.57;;;9.10;99.90;;;;;;467156;253;28089;-71
2023/09/23 05:37:36;;;;;;;1.50;1.40;;;9.00;99.90;;;;;;466942;254;27607;-70
2023/09/23 05:39:37;;;;;;;1.47;1.37;;;9.00;99.90;;;;;;467174;253;27553;-70
2023/09/23 05:41:39;;;;;;;3.40;1.63;;;9.00;99.90;;;;;;467097;253;27963;-71
2023/09/23 05:43:40;;;;;;;1.53;1.43;;;9.00;99.90;;;;;;467190;254;27777;-71
2023/09/23 05:45:41;;;;;;;2.60;1.47;;;9.10;99.90;;;;;;467159;254;27858;-70
2023/09/23 05:47:42;;;;;;;1.50;1.40;;;9.10;99.90;;;;;;467163;253;28600;-70
2023/09/23 05:49:43;;;;;;;2.10;1.77;;;9.00;99.90;;;;;;467150;253;28226;-70
2023/09/23 05:51:45;;;;;;;1.30;1.30;;;9.10;99.90;;;;;;467159;253;28671;-71
2023/09/23 05:53:46;;;;;;;4.20;1.50;;;9.10;99.90;;;;;;467156;253;28668;-70
2023/09/23 05:55:47;;;;;;;3.20;1.60;;;9.10;99.90;;;;;;467170;254;28561;-72
2023/09/23 05:57:49;;;;;;;1.60;1.50;;;9.10;99.90;;;;;;467173;253;28459;-72
2023/09/23 05:59:50;;;;;;;1.27;1.23;;;9.00;99.90;;;;;;467121;253;27955;-70
2023/09/23 06:01:51;;;;;;;1.67;1.57;;;9.00;99.90;;;;;;467135;253;27828;-71
2023/09/23 06:03:52;;;;;;;1.53;1.43;;;9.10;99.90;;;;;;467137;253;27805;-71
2023/09/23 06:05:53;;;;;;;1.40;1.30;;;9.10;99.90;;;;;;467140;253;28054;-70
2023/09/23 06:07:55;;;;;;;2.30;1.50;;;9.10;99.90;;;;;;467195;253;27984;-72
2023/09/23 06:09:58;;;;;;;2.03;1.60;;;9.10;99.90;;;;;;467157;253;27793;-71
2023/09/23 06:11:57;;;;;;;2.20;1.20;;;9.10;99.90;;;;;;467069;249;27468;-71
2023/09/23 06:13:58;;;;;;;1.70;1.60;;;9.10;99.90;;;;;;467138;253;27969;-70
2023/09/23 06:16:00;;;;;;;1.67;1.57;;;9.10;99.90;;;;;;467200;253;27889;-71
2023/09/23 06:18:01;;;;;;;2.67;1.53;;;9.10;99.90;;;;;;467068;254;28099;-72
2023/09/23 06:20:03;;;;;;;1.43;1.30;;;9.20;99.90;;;;;;467178;253;27937;-71
2023/09/23 06:22:03;;;;;;;1.67;1.57;;;9.20;99.90;;;;;;467158;253;27945;-70
2023/09/23 06:24:05;;;;;;;1.63;1.50;;;9.20;99.90;;;;;;467179;253;28032;-72
2023/09/23 06:26:06;;;;;;;1.80;1.70;;;9.20;99.90;;;;;;467144;253;27837;-71
2023/09/23 06:28:07;;;;;;;1.57;1.47;;;9.30;99.90;;;;;;467121;254;28448;-72
2023/09/23 06:30:08;;;;;;;3.17;1.70;;;9.40;99.90;;;;;;467160;253;28395;-70
2023/09/23 06:32:10;;;;;;;2.70;1.73;;;9.50;99.90;;;;;;467165;253;28161;-71
2023/09/23 06:34:11;;;;;;;1.50;1.40;;;9.50;99.90;;;;;;467177;253;28519;-72
2023/09/23 06:36:12;;;;;;;1.80;1.50;;;9.60;99.90;;;;;;467150;253;28263;-70
2023/09/23 06:38:13;;;;;;;2.03;1.37;;;9.60;99.90;;;;;;467122;254;28035;-71
2023/09/23 06:40:15;;;;;;;1.67;1.57;;;9.60;99.90;;;;;;467128;253;27947;-71
2023/09/23 06:42:16;;;;;;;1.83;1.40;;;9.70;99.90;;;;;;467143;253;27987;-70
2023/09/23 06:44:17;;;;;;;1.40;1.30;;;9.80;99.90;;;;;;467206;253;27995;-73
2023/09/23 06:46:18;;;;;;;1.67;1.57;;;9.80;99.90;;;;;;467169;254;28159;-71
2023/09/23 06:48:20;;;;;;;2.07;1.80;;;9.80;99.90;;;;;;467174;254;28182;-70
2023/09/23 06:50:21;;;;;;;1.80;1.70;;;9.90;99.90;;;;;;467181;253;27832;-70
2023/09/23 06:52:22;;;;;;;2.20;1.47;;;9.90;99.90;;;;;;467191;253;27541;-70
2023/09/23 06:54:23;;;;;;;1.70;1.60;;;9.90;99.90;;;;;;467175;253;27995;-71
2023/09/23 06:56:25;;;;;;;2.00;1.60;;;10.00;99.90;;;;;;467189;253;28063;-71
2023/09/23 06:58:26;;;;;;;2.37;1.40;;;9.90;99.90;;;;;;466942;254;27943;-70
2023/09/23 07:00:27;;;;;;;1.57;1.40;;;10.00;99.90;;;;;;467119;253;28075;-71
2023/09/23 07:02:28;;;;;;;2.60;1.87;;;10.00;99.90;;;;;;467164;254;28299;-70
2023/09/23 07:04:30;;;;;;;2.60;1.50;;;10.10;99.90;;;;;;467151;253;28365;-71
2023/09/23 07:06:31;;;;;;;1.67;1.57;;;10.10;99.90;;;;;;467117;253;28477;-71
2023/09/23 07:08:32;;;;;;;2.13;1.63;;;10.20;99.90;;;;;;467150;254;28655;-71
2023/09/23 07:10:33;;;;;;;1.83;1.63;;;10.30;99.90;;;;;;467189;253;28160;-72
2023/09/23 07:12:35;;;;;;;2.83;1.60;;;10.20;99.90;;;;;;467183;253;28053;-70
2023/09/23 07:14:36;;;;;;;2.57;2.10;;;10.20;99.90;;;;;;467202;253;27866;-71
2023/09/23 07:16:37;;;;;;;3.23;1.83;;;10.30;99.90;;;;;;467167;253;27916;-71
2023/09/23 07:18:38;;;;;;;1.47;1.33;;;10.30;99.90;;;;;;467204;253;28041;-71
2023/09/23 07:20:40;;;;;;;1.40;1.30;;;10.30;99.90;;;;;;467165;253;27953;-72
2023/09/23 07:22:41;;;;;;;2.60;1.70;;;10.30;99.90;;;;;;467175;253;27921;-70
2023/09/23 07:24:42;;;;;;;1.70;1.43;;;10.30;99.90;;;;;;467129;253;27846;-71
2023/09/23 07:26:43;;;;;;;2.03;1.70;;;10.40;99.90;;;;;;467059;253;27807;-71
2023/09/23 07:28:45;;;;;;;1.30;1.20;;;10.40;99.90;;;;;;467142;250;28484;-71
2023/09/23 07:30:46;;;;;;;4.77;1.60;;;10.50;99.90;;;;;;467092;253;28560;-72
2023/09/23 07:32:47;;;;;;;1.87;1.63;;;10.50;99.90;;;;;;467141;253;28401;-71
2023/09/23 07:34:48;;;;;;;4.97;1.83;;;10.60;99.90;;;;;;467118;253;27959;-71
2023/09/23 07:36:50;;;;;;;1.63;1.53;;;10.60;99.90;;;;;;467132;254;28104;-71
2023/09/23 07:38:51;;;;;;;3.07;1.27;;;10.60;99.90;;;;;;467143;253;27888;-71
2023/09/23 07:40:54;;;;;;;1.80;1.70;;;10.70;99.90;;;;;;467128;253;28052;-71
2023/09/23 07:42:53;;;;;;;6.70;1.60;;;10.70;99.90;;;;;;467028;254;28064;-71
2023/09/23 07:44:55;;;;;;;2.60;1.73;;;10.70;99.90;;;;;;467164;253;27984;-71
2023/09/23 07:46:56;;;;;;;3.27;1.70;;;10.80;99.90;;;;;;467187;253;28284;-72
2023/09/23 07:48:57;;;;;;;2.10;1.60;;;10.80;99.90;;;;;;467203;254;28176;-71
2023/09/23 07:50:58;;;;;;;1.40;1.30;;;10.90;99.90;;;;;;467150;249;27980;-71
2023/09/23 07:53:00;;;;;;;4.00;2.00;;;10.90;99.90;;;;;;467120;253;28516;-71
2023/09/23 07:55:01;;;;;;;1.30;1.20;;;10.90;99.90;;;;;;467150;253;28415;-71
2023/09/23 07:57:02;;;;;;;1.40;1.30;;;11.00;99.90;;;;;;467156;253;28497;-72
2023/09/23 07:59:04;;;;;;;1.83;1.30;;;11.00;99.90;;;;;;467142;253;28463;-70
2023/09/23 08:01:05;;;;;;;1.40;1.30;;;11.10;99.90;;;;;;467120;254;28142;-71
2023/09/23 08:03:06;;;;;;;5.20;1.80;;;11.10;99.90;;;;;;467139;253;28158;-71
2023/09/23 08:05:07;;;;;;;1.63;1.50;;;11.20;99.90;;;;;;467168;254;28001;-70
2023/09/23 08:07:08;;;;;;;2.20;1.30;;;11.30;99.90;;;;;;467093;253;28144;-71
2023/09/23 08:09:10;;;;;;;3.80;1.80;;;11.40;99.90;;;;;;467166;254;28072;-71
2023/09/23 08:11:11;;;;;;;3.07;1.60;;;11.40;99.90;;;;;;467146;253;28232;-71
2023/09/23 08:13:12;;;;;;;2.70;1.83;;;11.50;99.90;;;;;;467177;253;28404;-72
2023/09/23 08:15:13;;;;;;;3.43;2.00;;;11.50;99.90;;;;;;467158;253;28199;-71
2023/09/23 08:17:15;;;;;;;3.17;1.93;;;11.50;99.90;;;;;;467187;253;28160;-71
2023/09/23 08:19:16;;;;;;;3.03;2.03;;;11.60;99.90;;;;;;467148;253;28624;-71
2023/09/23 08:21:17;;;;;;;3.23;2.10;;;11.60;99.90;;;;;;467151;254;28940;-72
2023/09/23 08:23:18;;;;;;;2.70;1.80;;;11.70;99.90;;;;;;467190;250;28724;-72
2023/09/23 08:25:20;;;;;;;5.13;1.90;;;11.70;99.90;;;;;;467194;253;28380;-70
2023/09/23 08:27:21;;;;;;;2.20;1.73;;;11.90;99.90;;;;;;467156;253;28441;-71
2023/09/23 08:29:24;;;;;;;6.63;1.70;;;12.00;99.90;;;;;;467153;253;28178;-71
2023/09/23 08:31:23;;;;;;;4.17;2.13;;;12.10;99.90;;;;;;467130;254;28229;-71
2023/09/23 08:33:27;;;;;;;2.10;1.60;;;;;;;;;;467195;253;28465;-71
2023/09/23 08:35:28;;;;;;;1.57;1.10;;;12.10;99.90;;;;;;467238;251;27678;-71
2023/09/23 08:37:28;;;;;;;2.50;1.47;;;12.20;99.90;;;;;;467124;253;28404;-70
2023/09/23 08:39:30;;;;;;;4.63;2.00;;;12.20;99.90;;;;;;467194;253;28628;-71
2023/09/23 08:41:31;;;;;;;2.30;1.40;;;12.20;99.90;;;;;;467140;253;28338;-72
2023/09/23 08:43:38;;;;;;;2.80;1.57;;;12.30;99.90;;;;;;467165;253;28327;-71
2023/09/23 08:45:39;;;;;;;2.00;1.50;;;12.40;99.90;;;;;;467175;253;28513;-71
2023/09/23 08:47:42;;;;;;;1.50;1.40;;;12.50;99.90;;;;;;467210;253;28456;-72
2023/09/23 08:49:42;;;;;;;1.97;1.30;;;12.50;99.90;;;;;;467146;254;28230;-70
2023/09/23 08:51:43;;;;;;;2.10;1.53;;;12.60;99.90;;;;;;467200;253;28496;-71
2023/09/23 08:53:45;;;;;;;3.97;2.00;;;12.60;99.90;;;;;;467166;253;28618;-71
2023/09/23 08:55:47;;;;;;;5.43;1.90;;;12.50;99.90;;;;;;467155;253;28347;-71
2023/09/23 08:57:47;;;;;;;1.43;1.33;;;12.60;99.90;;;;;;467141;254;28317;-73
2023/09/23 08:59:48;;;;;;;1.40;1.30;;;12.50;99.90;;;;;;467195;253;28573;-71
2023/09/23 09:01:49;;;;;;;3.17;1.43;;;12.70;99.90;;;;;;467183;253;29170;-71
2023/09/23 09:03:53;;;;;;;1.53;1.17;;;12.70;99.90;;;;;;467152;253;28966;-71
2023/09/23 09:05:52;;;;;;;6.20;1.47;;;12.90;99.90;;;;;;467049;249;29657;-71
2023/09/23 09:07:53;;;;;;;1.33;1.20;;;13.00;99.90;;;;;;467197;253;28141;-71
2023/09/23 09:09:54;;;;;;;2.53;1.23;;;12.90;99.90;;;;;;467191;253;28284;-71
2023/09/23 09:11:58;;;;;;;2.53;1.67;;;13.00;99.90;;;;;;467137;253;28089;-71
2023/09/23 09:13:58;;;;;;;2.60;1.47;;;13.20;99.90;;;;;;467064;253;29026;-73
2023/09/23 09:15:58;;;;;;;3.30;1.60;;;13.10;99.90;;;;;;467182;253;28156;-71
2023/09/23 09:18:01;;;;;;;2.10;1.60;;;;;;;;;;467161;253;28874;-71
2023/09/23 09:20:07;;;;;;;2.43;1.60;;;13.10;99.90;;;;;;467131;251;26659;-72
2023/09/23 09:22:03;;;;;;;1.93;1.30;;;13.20;99.90;;;;;;466793;253;28086;-72
2023/09/23 09:24:07;;;;;;;8.33;1.67;;;13.40;99.90;;;;;;467163;249;28371;-71
2023/09/23 09:26:10;;;;;;;2.30;1.60;;;;;;;;;;467154;253;28310;-70
2023/09/23 09:28:11;;;;;;;2.00;1.47;;;13.60;99.90;;;;;;467154;254;26500;-71
2023/09/23 09:30:13;;;;;;;4.33;1.70;;;13.70;99.90;;;;;;467145;253;28302;-71
2023/09/23 09:32:14;;;;;;;4.23;1.50;;;13.70;99.90;;;;;;467150;253;28948;-72
2023/09/23 09:34:15;;;;;;;1.30;1.20;;;13.90;99.90;;;;;;467145;253;28726;-71
2023/09/23 09:36:17;;;;;;;2.97;1.43;;;14.10;99.90;;;;;;467142;253;28674;-71
2023/09/23 09:38:17;;;;;;;1.23;1.13;;;14.20;99.90;;;;;;467117;254;29451;-71
2023/09/23 09:40:19;;;;;;;6.03;1.63;;;14.30;99.90;;;;;;467133;253;28311;-71
2023/09/23 09:42:20;;;;;;;4.43;1.80;;;14.30;99.90;;;;;;467157;253;28251;-73
2023/09/23 09:44:22;;;;;;;7.73;1.47;;;14.30;99.90;;;;;;467148;253;28487;-71
2023/09/23 09:46:22;;;;;;;5.03;1.67;;;14.30;99.90;;;;;;467092;254;28397;-71
2023/09/23 09:48:26;;;;;;;2.50;1.57;;;14.30;99.90;;;;;;467175;253;28993;-73
2023/09/23 09:50:25;;;;;;;3.60;1.50;;;14.40;99.90;;;;;;467055;253;28266;-71
2023/09/23 09:52:26;;;;;;;2.57;1.23;;;14.40;99.90;;;;;;467162;253;28626;-71
2023/09/23 09:54:27;;;;;;;2.73;1.93;;;14.30;99.90;;;;;;467104;253;28317;-71
2023/09/23 09:56:29;;;;;;;1.50;1.20;;;14.50;99.90;;;;;;467132;250;28554;-71
2023/09/23 09:58:30;;;;;;;4.10;1.40;;;14.50;99.90;;;;;;467156;253;28499;-72
2023/09/23 10:00:31;;;;;;;2.70;1.53;;;14.50;99.90;;;;;;467133;253;29283;-71
2023/09/23 10:02:32;;;;;;;5.00;1.70;;;14.60;99.90;;;;;;467133;254;29429;-71
2023/09/23 10:04:34;;;;;;;7.77;1.80;;;14.60;99.90;;;;;;467138;253;30015;-71
2023/09/23 10:06:35;;;;;;;3.60;1.40;;;14.60;99.90;;;;;;467161;253;29359;-71
2023/09/23 10:08:36;;;;;;;2.73;1.47;;;14.70;99.90;;;;;;467137;254;28862;-71
2023/09/23 10:10:38;;;;;;;2.63;1.43;;;14.80;99.90;;;;;;467145;254;28867;-72
2023/09/23 10:12:39;;;;;;;3.53;1.43;;;14.80;99.90;;;;;;467139;253;28951;-71
2023/09/23 10:14:40;;;;;;;3.60;1.63;;;14.80;99.90;;;;;;467172;250;28937;-73
2023/09/23 10:16:41;;;;;;;4.97;1.50;;;14.70;99.90;;;;;;467145;253;28825;-71
2023/09/23 10:18:43;;;;;;;1.97;1.30;;;14.70;99.90;;;;;;467131;253;28866;-72
2023/09/23 10:20:44;;;;;;;3.23;1.60;;;14.70;99.90;;;;;;467107;253;28894;-71
2023/09/23 10:22:45;;;;;;;4.30;1.60;;;14.60;99.90;;;;;;467116;253;28902;-71
2023/09/23 10:24:46;;;;;;;1.93;1.40;;;14.60;99.90;;;;;;467151;253;28952;-73
2023/09/23 10:26:47;;;;;;;4.80;1.50;;;14.70;99.90;;;;;;467125;254;29351;-71
2023/09/23 10:28:49;;;;;;;2.93;1.63;;;14.70;99.90;;;;;;467101;253;29351;-71
2023/09/23 10:30:50;;;;;;;1.67;1.57;;;14.70;99.90;;;;;;467064;253;29282;-71
2023/09/23 10:32:51;;;;;;;2.47;1.43;;;14.80;99.90;;;;;;467134;254;28865;-71
2023/09/23 10:34:59;;;;;;;1.83;1.43;;;14.90;99.90;;;;;;467135;253;28845;-72
2023/09/23 10:36:59;;;;;;;2.60;1.37;;;14.80;99.90;;;;;;467128;253;29297;-71